sensor_id;sensor_type;location;lat;lon;timestamp;temperature;humidity
22742;DHT22;11538;48.884;8.696;2023-03-19T00:00:45;11.20;99.90
22742;DHT22;11538;48.884;8.696;2023-03-19T00:03:12;11.20;99.90
22742;DHT22;11538;48.884;8.696;2023-03-19T00:05:40;11.20;99.90
22742;DHT22;11538;48.884;8.696;2023-03-19T00:08:07;11.20;99.90
22742;DHT22;11538;48.884;8.696;2023-03-19T00:10:37;11.20;99.90
22742;DHT22;11538;48.884;8.696;2023-03-19T00:13:04;11.20;99.90
22742;DHT22;11538;48.884;8.696;2023-03-19T00:15:32;11.10;99.90
22742;DHT22;11538;48.884;8.696;2023-03-19T00:17:59;11.10;99.90
22742;DHT22;11538;48.884;8.696;2023-03-19T00:20:26;11.10;99.90
22742;DHT22;11538;48.884;8.696;2023-03-19T00:22:53;11.10;99.90
22742;DHT22;11538;48.884;8.696;2023-03-19T00:25:20;11.10;99.90
22742;DHT22;11538;48.884;8.696;2023-03-19T00:27:47;11.10;99.90
22742;DHT22;11538;48.884;8.696;2023-03-19T00:30:14;11.10;99.90
22742;DHT22;11538;48.884;8.696;2023-03-19T00:32:41;11.10;99.90
22742;DHT22;11538;48.884;8.696;2023-03-19T00:35:08;11.10;99.90
22742;DHT22;11538;48.884;8.696;2023-03-19T00:37:37;11.10;99.90
22742;DHT22;11538;48.884;8.696;2023-03-19T00:40:04;11.10;99.90
22742;DHT22;11538;48.884;8.696;2023-03-19T00:42:32;11.10;99.90
22742;DHT22;11538;48.884;8.696;2023-03-19T00:44:59;11.20;99.90
22742;DHT22;11538;48.884;8.696;2023-03-19T00:47:26;11.20;99.90
22742;DHT22;11538;48.884;8.696;2023-03-19T00:49:53;11.20;99.90
22742;DHT22;11538;48.884;8.696;2023-03-19T00:52:20;11.20;99.90
22742;DHT22;11538;48.884;8.696;2023-03-19T00:54:47;11.10;99.90
22742;DHT22;11538;48.884;8.696;2023-03-19T00:57:14;11.10;99.90
22742;DHT22;11538;48.884;8.696;2023-03-19T00:59:41;11.10;99.90
22742;DHT22;11538;48.884;8.696;2023-03-19T01:02:08;11.10;99.90
22742;DHT22;11538;48.884;8.696;2023-03-19T01:04:35;11.10;99.90
22742;DHT22;11538;48.884;8.696;2023-03-19T01:07:02;11.10;99.90
22742;DHT22;11538;48.884;8.696;2023-03-19T01:09:29;11.10;99.90
22742;DHT22;11538;48.884;8.696;2023-03-19T01:11:57;11.10;99.90
22742;DHT22;11538;48.884;8.696;2023-03-19T01:14:24;11.10;99.90
22742;DHT22;11538;48.884;8.696;2023-03-19T01:16:51;11.10;99.90
22742;DHT22;11538;48.884;8.696;2023-03-19T01:19:18;11.10;99.90
22742;DHT22;11538;48.884;8.696;2023-03-19T01:21:45;11.10;99.90
22742;DHT22;11538;48.884;8.696;2023-03-19T01:24:12;11.00;99.90
22742;DHT22;11538;48.884;8.696;2023-03-19T01:26:39;11.00;99.90
22742;DHT22;11538;48.884;8.696;2023-03-19T01:29:07;10.90;99.90
22742;DHT22;11538;48.884;8.696;2023-03-19T01:31:35;10.90;99.90
22742;DHT22;11538;48.884;8.696;2023-03-19T01:34:03;10.90;99.90
22742;DHT22;11538;48.884;8.696;2023-03-19T01:36:30;10.90;99.90
22742;DHT22;11538;48.884;8.696;2023-03-19T01:38:57;10.90;99.90
22742;DHT22;11538;48.884;8.696;2023-03-19T01:41:24;11.00;99.90
22742;DHT22;11538;48.884;8.696;2023-03-19T01:43:52;11.00;99.90
22742;DHT22;11538;48.884;8.696;2023-03-19T01:46:35;11.00;99.90
22742;DHT22;11538;48.884;8.696;2023-03-19T01:49:09;11.00;99.90
22742;DHT22;11538;48.884;8.696;2023-03-19T01:51:40;11.00;99.90
22742;DHT22;11538;48.884;8.696;2023-03-19T01:54:16;10.90;99.90
22742;DHT22;11538;48.884;8.696;2023-03-19T01:56:50;11.00;99.90
22742;DHT22;11538;48.884;8.696;2023-03-19T01:59:26;11.00;99.90
22742;DHT22;11538;48.884;8.696;2023-03-19T02:02:00;11.00;99.90
22742;DHT22;11538;48.884;8.696;2023-03-19T02:04:30;11.00;99.90
22742;DHT22;11538;48.884;8.696;2023-03-19T02:07:00;11.00;99.90
22742;DHT22;11538;48.884;8.696;2023-03-19T02:09:31;11.00;99.90
22742;DHT22;11538;48.884;8.696;2023-03-19T02:11:59;11.00;99.90
22742;DHT22;11538;48.884;8.696;2023-03-19T02:14:27;10.90;99.90
22742;DHT22;11538;48.884;8.696;2023-03-19T02:16:54;11.00;99.90
22742;DHT22;11538;48.884;8.696;2023-03-19T02:19:55;10.90;99.90
22742;DHT22;11538;48.884;8.696;2023-03-19T02:22:29;11.00;99.90
22742;DHT22;11538;48.884;8.696;2023-03-19T02:25:10;11.00;99.90
22742;DHT22;11538;48.884;8.696;2023-03-19T02:27:42;10.90;99.90
22742;DHT22;11538;48.884;8.696;2023-03-19T02:30:20;10.90;99.90
22742;DHT22;11538;48.884;8.696;2023-03-19T02:32:50;10.80;99.90
22742;DHT22;11538;48.884;8.696;2023-03-19T02:35:17;10.70;99.90
22742;DHT22;11538;48.884;8.696;2023-03-19T02:37:44;10.70;99.90
22742;DHT22;11538;48.884;8.696;2023-03-19T02:40:28;10.60;99.90
22742;DHT22;11538;48.884;8.696;2023-03-19T02:42:58;10.60;99.90
22742;DHT22;11538;48.884;8.696;2023-03-19T02:45:28;10.50;99.90
22742;DHT22;11538;48.884;8.696;2023-03-19T02:47:57;10.50;99.90
22742;DHT22;11538;48.884;8.696;2023-03-19T02:50:25;10.60;99.90
22742;DHT22;11538;48.884;8.696;2023-03-19T02:52:53;10.60;99.90
22742;DHT22;11538;48.884;8.696;2023-03-19T02:55:20;10.60;99.90
22742;DHT22;11538;48.884;8.696;2023-03-19T02:57:47;10.60;99.90
22742;DHT22;11538;48.884;8.696;2023-03-19T03:00:14;10.60;99.90
22742;DHT22;11538;48.884;8.696;2023-03-19T03:02:44;10.60;99.90
22742;DHT22;11538;48.884;8.696;2023-03-19T03:05:12;10.60;99.90
22742;DHT22;11538;48.884;8.696;2023-03-19T03:07:39;10.50;99.90
22742;DHT22;11538;48.884;8.696;2023-03-19T03:10:10;10.50;99.90
22742;DHT22;11538;48.884;8.696;2023-03-19T03:12:37;10.50;99.90
22742;DHT22;11538;48.884;8.696;2023-03-19T03:15:06;10.50;99.90
22742;DHT22;11538;48.884;8.696;2023-03-19T03:17:38;10.50;99.90
22742;DHT22;11538;48.884;8.696;2023-03-19T03:20:07;10.40;99.90
22742;DHT22;11538;48.884;8.696;2023-03-19T03:22:37;10.40;99.90
22742;DHT22;11538;48.884;8.696;2023-03-19T03:25:06;10.40;99.90
22742;DHT22;11538;48.884;8.696;2023-03-19T03:27:34;10.40;99.90
22742;DHT22;11538;48.884;8.696;2023-03-19T03:30:06;10.40;99.90
22742;DHT22;11538;48.884;8.696;2023-03-19T03:32:35;10.40;99.90
22742;DHT22;11538;48.884;8.696;2023-03-19T03:35:03;10.40;99.90
22742;DHT22;11538;48.884;8.696;2023-03-19T03:37:31;10.40;99.90
22742;DHT22;11538;48.884;8.696;2023-03-19T03:39:58;10.40;99.90
22742;DHT22;11538;48.884;8.696;2023-03-19T03:42:25;10.40;99.90
22742;DHT22;11538;48.884;8.696;2023-03-19T03:44:52;10.40;99.90
22742;DHT22;11538;48.884;8.696;2023-03-19T03:47:19;10.40;99.90
22742;DHT22;11538;48.884;8.696;2023-03-19T03:49:46;10.40;99.90
22742;DHT22;11538;48.884;8.696;2023-03-19T03:52:13;10.40;99.90
22742;DHT22;11538;48.884;8.696;2023-03-19T03:54:40;10.40;99.90
22742;DHT22;11538;48.884;8.696;2023-03-19T03:57:07;10.40;99.90
22742;DHT22;11538;48.884;8.696;2023-03-19T03:59:33;10.50;99.90
22742;DHT22;11538;48.884;8.696;2023-03-19T04:02:00;10.50;99.90
22742;DHT22;11538;48.884;8.696;2023-03-19T04:04:27;10.50;99.90
22742;DHT22;11538;48.884;8.696;2023-03-19T04:06:55;10.50;99.90
22742;DHT22;11538;48.884;8.696;2023-03-19T04:09:22;10.50;99.90
22742;DHT22;11538;48.884;8.696;2023-03-19T04:11:48;10.50;99.90
22742;DHT22;11538;48.884;8.696;2023-03-19T04:14:17;10.50;99.90
22742;DHT22;11538;48.884;8.696;2023-03-19T04:16:44;10.60;99.90
22742;DHT22;11538;48.884;8.696;2023-03-19T04:19:10;10.50;99.90
22742;DHT22;11538;48.884;8.696;2023-03-19T04:21:37;10.50;99.90
22742;DHT22;11538;48.884;8.696;2023-03-19T04:24:04;10.50;99.90
22742;DHT22;11538;48.884;8.696;2023-03-19T04:26:31;10.40;99.90
22742;DHT22;11538;48.884;8.696;2023-03-19T04:28:58;10.30;99.90
22742;DHT22;11538;48.884;8.696;2023-03-19T04:31:25;10.30;99.90
22742;DHT22;11538;48.884;8.696;2023-03-19T04:33:52;10.30;99.90
22742;DHT22;11538;48.884;8.696;2023-03-19T04:36:20;10.20;99.90
22742;DHT22;11538;48.884;8.696;2023-03-19T04:38:47;10.20;99.90
22742;DHT22;11538;48.884;8.696;2023-03-19T04:41:14;10.10;99.90
22742;DHT22;11538;48.884;8.696;2023-03-19T04:43:41;10.10;99.90
22742;DHT22;11538;48.884;8.696;2023-03-19T04:46:09;10.10;99.90
22742;DHT22;11538;48.884;8.696;2023-03-19T04:48:37;10.20;99.90
22742;DHT22;11538;48.884;8.696;2023-03-19T04:51:05;10.20;99.90
22742;DHT22;11538;48.884;8.696;2023-03-19T04:53:35;10.20;99.90
22742;DHT22;11538;48.884;8.696;2023-03-19T04:56:03;10.20;99.90
22742;DHT22;11538;48.884;8.696;2023-03-19T04:58:30;10.20;99.90
22742;DHT22;11538;48.884;8.696;2023-03-19T05:00:57;10.20;99.90
22742;DHT22;11538;48.884;8.696;2023-03-19T05:03:24;10.30;99.90
22742;DHT22;11538;48.884;8.696;2023-03-19T05:05:54;10.30;99.90
22742;DHT22;11538;48.884;8.696;2023-03-19T05:08:21;10.30;99.90
22742;DHT22;11538;48.884;8.696;2023-03-19T05:10:48;10.30;99.90
22742;DHT22;11538;48.884;8.696;2023-03-19T05:13:15;10.40;99.90
22742;DHT22;11538;48.884;8.696;2023-03-19T05:15:42;10.40;99.90
22742;DHT22;11538;48.884;8.696;2023-03-19T05:18:11;10.40;99.90
22742;DHT22;11538;48.884;8.696;2023-03-19T05:20:38;10.40;99.90
22742;DHT22;11538;48.884;8.696;2023-03-19T05:23:06;10.40;99.90
22742;DHT22;11538;48.884;8.696;2023-03-19T05:25:33;10.50;99.90
22742;DHT22;11538;48.884;8.696;2023-03-19T05:28:04;10.50;99.90
22742;DHT22;11538;48.884;8.696;2023-03-19T05:30:31;10.50;99.90
22742;DHT22;11538;48.884;8.696;2023-03-19T05:32:59;10.50;99.90
22742;DHT22;11538;48.884;8.696;2023-03-19T05:35:27;10.50;99.90
22742;DHT22;11538;48.884;8.696;2023-03-19T05:37:56;10.50;99.90
22742;DHT22;11538;48.884;8.696;2023-03-19T05:40:23;10.50;99.90
22742;DHT22;11538;48.884;8.696;2023-03-19T05:42:51;10.50;99.90
22742;DHT22;11538;48.884;8.696;2023-03-19T05:45:18;10.50;99.90
22742;DHT22;11538;48.884;8.696;2023-03-19T05:47:48;10.50;99.90
22742;DHT22;11538;48.884;8.696;2023-03-19T05:50:17;10.50;99.90
22742;DHT22;11538;48.884;8.696;2023-03-19T05:52:44;10.50;99.90
22742;DHT22;11538;48.884;8.696;2023-03-19T05:55:11;10.50;99.90
22742;DHT22;11538;48.884;8.696;2023-03-19T05:57:38;10.40;99.90
22742;DHT22;11538;48.884;8.696;2023-03-19T06:00:06;10.40;99.90
22742;DHT22;11538;48.884;8.696;2023-03-19T06:02:34;10.40;99.90
22742;DHT22;11538;48.884;8.696;2023-03-19T06:05:02;10.50;99.90
22742;DHT22;11538;48.884;8.696;2023-03-19T06:07:30;10.40;99.90
22742;DHT22;11538;48.884;8.696;2023-03-19T06:09:57;10.40;99.90
22742;DHT22;11538;48.884;8.696;2023-03-19T06:12:24;10.40;99.90
22742;DHT22;11538;48.884;8.696;2023-03-19T06:14:50;10.50;99.90
22742;DHT22;11538;48.884;8.696;2023-03-19T06:17:17;10.40;99.90
22742;DHT22;11538;48.884;8.696;2023-03-19T06:19:45;10.40;99.90
22742;DHT22;11538;48.884;8.696;2023-03-19T06:22:12;10.40;99.90
22742;DHT22;11538;48.884;8.696;2023-03-19T06:24:39;10.40;99.90
22742;DHT22;11538;48.884;8.696;2023-03-19T06:27:05;10.40;99.90
22742;DHT22;11538;48.884;8.696;2023-03-19T06:29:32;10.40;99.90
22742;DHT22;11538;48.884;8.696;2023-03-19T06:31:59;10.40;99.90
22742;DHT22;11538;48.884;8.696;2023-03-19T06:34:26;10.40;99.90
22742;DHT22;11538;48.884;8.696;2023-03-19T06:36:53;10.40;99.90
22742;DHT22;11538;48.884;8.696;2023-03-19T06:39:20;10.40;99.90
22742;DHT22;11538;48.884;8.696;2023-03-19T06:41:47;10.50;99.90
22742;DHT22;11538;48.884;8.696;2023-03-19T06:44:14;10.50;99.90
22742;DHT22;11538;48.884;8.696;2023-03-19T06:46:41;10.50;99.90
22742;DHT22;11538;48.884;8.696;2023-03-19T06:49:08;10.60;99.90
22742;DHT22;11538;48.884;8.696;2023-03-19T06:51:35;10.60;99.90
22742;DHT22;11538;48.884;8.696;2023-03-19T06:54:02;10.70;99.90
22742;DHT22;11538;48.884;8.696;2023-03-19T06:56:29;10.70;99.90
22742;DHT22;11538;48.884;8.696;2023-03-19T06:58:56;10.70;99.90
22742;DHT22;11538;48.884;8.696;2023-03-19T07:01:23;10.80;99.90
22742;DHT22;11538;48.884;8.696;2023-03-19T07:03:50;10.80;99.90
22742;DHT22;11538;48.884;8.696;2023-03-19T07:06:17;10.80;99.90
22742;DHT22;11538;48.884;8.696;2023-03-19T07:08:44;10.90;99.90
22742;DHT22;11538;48.884;8.696;2023-03-19T07:11:12;10.90;99.90
22742;DHT22;11538;48.884;8.696;2023-03-19T07:13:39;11.00;99.90
22742;DHT22;11538;48.884;8.696;2023-03-19T07:16:06;11.00;99.90
22742;DHT22;11538;48.884;8.696;2023-03-19T07:18:34;11.10;99.90
22742;DHT22;11538;48.884;8.696;2023-03-19T07:21:03;11.20;99.90
22742;DHT22;11538;48.884;8.696;2023-03-19T07:23:30;11.20;99.90
22742;DHT22;11538;48.884;8.696;2023-03-19T07:25:57;11.30;99.90
22742;DHT22;11538;48.884;8.696;2023-03-19T07:28:24;11.40;99.90
22742;DHT22;11538;48.884;8.696;2023-03-19T07:30:51;11.50;99.90
22742;DHT22;11538;48.884;8.696;2023-03-19T07:33:20;11.60;99.90
22742;DHT22;11538;48.884;8.696;2023-03-19T07:35:48;11.70;99.90
22742;DHT22;11538;48.884;8.696;2023-03-19T07:38:15;11.70;99.90
22742;DHT22;11538;48.884;8.696;2023-03-19T07:40:43;11.80;99.90
22742;DHT22;11538;48.884;8.696;2023-03-19T07:43:26;11.80;99.90
22742;DHT22;11538;48.884;8.696;2023-03-19T07:45:53;11.90;99.90
22742;DHT22;11538;48.884;8.696;2023-03-19T07:48:20;11.90;99.90
22742;DHT22;11538;48.884;8.696;2023-03-19T07:50:51;12.00;99.90
22742;DHT22;11538;48.884;8.696;2023-03-19T07:53:18;12.00;99.90
22742;DHT22;11538;48.884;8.696;2023-03-19T07:55:47;12.10;99.90
22742;DHT22;11538;48.884;8.696;2023-03-19T07:58:15;12.20;99.90
22742;DHT22;11538;48.884;8.696;2023-03-19T08:00:42;12.30;99.90
22742;DHT22;11538;48.884;8.696;2023-03-19T08:03:11;12.30;99.90
22742;DHT22;11538;48.884;8.696;2023-03-19T08:05:38;12.50;99.90
22742;DHT22;11538;48.884;8.696;2023-03-19T08:08:05;12.60;99.90
22742;DHT22;11538;48.884;8.696;2023-03-19T08:10:32;12.80;99.90
22742;DHT22;11538;48.884;8.696;2023-03-19T08:13:03;12.90;99.90
22742;DHT22;11538;48.884;8.696;2023-03-19T08:15:31;13.10;99.90
22742;DHT22;11538;48.884;8.696;2023-03-19T08:18:03;13.30;99.90
22742;DHT22;11538;48.884;8.696;2023-03-19T08:20:31;13.50;99.90
22742;DHT22;11538;48.884;8.696;2023-03-19T08:22:59;13.80;99.90
22742;DHT22;11538;48.884;8.696;2023-03-19T08:25:26;14.00;99.90
22742;DHT22;11538;48.884;8.696;2023-03-19T08:27:59;14.20;99.90
22742;DHT22;11538;48.884;8.696;2023-03-19T08:30:26;14.40;99.90
22742;DHT22;11538;48.884;8.696;2023-03-19T08:32:53;14.50;99.90
22742;DHT22;11538;48.884;8.696;2023-03-19T08:35:21;14.60;99.90
22742;DHT22;11538;48.884;8.696;2023-03-19T08:37:48;14.60;99.90
22742;DHT22;11538;48.884;8.696;2023-03-19T08:40:15;14.70;99.90
22742;DHT22;11538;48.884;8.696;2023-03-19T08:42:42;14.70;99.90
22742;DHT22;11538;48.884;8.696;2023-03-19T08:45:12;14.70;99.90
22742;DHT22;11538;48.884;8.696;2023-03-19T08:47:41;14.70;99.90
22742;DHT22;11538;48.884;8.696;2023-03-19T08:50:10;14.70;99.90
22742;DHT22;11538;48.884;8.696;2023-03-19T08:52:37;14.80;99.90
22742;DHT22;11538;48.884;8.696;2023-03-19T08:55:05;14.80;99.90
22742;DHT22;11538;48.884;8.696;2023-03-19T08:57:33;14.80;99.90
22742;DHT22;11538;48.884;8.696;2023-03-19T09:00:00;14.80;99.90
22742;DHT22;11538;48.884;8.696;2023-03-19T09:02:27;14.80;99.90
22742;DHT22;11538;48.884;8.696;2023-03-19T09:04:54;14.80;99.90
22742;DHT22;11538;48.884;8.696;2023-03-19T09:07:21;14.90;99.90
22742;DHT22;11538;48.884;8.696;2023-03-19T09:09:48;14.90;99.90
22742;DHT22;11538;48.884;8.696;2023-03-19T09:12:16;15.10;99.90
22742;DHT22;11538;48.884;8.696;2023-03-19T09:14:43;15.20;99.90
22742;DHT22;11538;48.884;8.696;2023-03-19T09:17:10;15.30;99.90
22742;DHT22;11538;48.884;8.696;2023-03-19T09:19:39;15.40;99.90
22742;DHT22;11538;48.884;8.696;2023-03-19T09:22:07;15.40;99.90
22742;DHT22;11538;48.884;8.696;2023-03-19T09:24:34;15.40;99.90
22742;DHT22;11538;48.884;8.696;2023-03-19T09:27:01;15.50;99.90
22742;DHT22;11538;48.884;8.696;2023-03-19T09:29:28;15.60;99.90
22742;DHT22;11538;48.884;8.696;2023-03-19T09:31:58;15.70;99.90
22742;DHT22;11538;48.884;8.696;2023-03-19T09:34:26;15.80;99.90
22742;DHT22;11538;48.884;8.696;2023-03-19T09:36:54;16.00;99.90
22742;DHT22;11538;48.884;8.696;2023-03-19T09:39:23;16.30;99.90
22742;DHT22;11538;48.884;8.696;2023-03-19T09:44:37;16.90;99.90
22742;DHT22;11538;48.884;8.696;2023-03-19T09:47:26;17.20;99.90
22742;DHT22;11538;48.884;8.696;2023-03-19T09:50:08;17.60;99.90
22742;DHT22;11538;48.884;8.696;2023-03-19T09:52:54;17.90;99.90
22742;DHT22;11538;48.884;8.696;2023-03-19T09:55:43;18.10;99.90
22742;DHT22;11538;48.884;8.696;2023-03-19T09:58:18;18.30;99.90
22742;DHT22;11538;48.884;8.696;2023-03-19T10:00:51;18.50;99.90
22742;DHT22;11538;48.884;8.696;2023-03-19T10:03:46;18.60;99.90
22742;DHT22;11538;48.884;8.696;2023-03-19T10:06:27;18.80;99.90
22742;DHT22;11538;48.884;8.696;2023-03-19T10:12:38;19.30;99.90
22742;DHT22;11538;48.884;8.696;2023-03-19T10:15:29;19.50;99.90
22742;DHT22;11538;48.884;8.696;2023-03-19T10:21:03;19.90;99.90
22742;DHT22;11538;48.884;8.696;2023-03-19T10:23:47;20.00;99.90
22742;DHT22;11538;48.884;8.696;2023-03-19T10:26:21;20.00;99.90
22742;DHT22;11538;48.884;8.696;2023-03-19T10:29:05;20.10;99.90
22742;DHT22;11538;48.884;8.696;2023-03-19T10:31:41;20.10;99.90
22742;DHT22;11538;48.884;8.696;2023-03-19T10:36:47;20.50;99.90
22742;DHT22;11538;48.884;8.696;2023-03-19T10:39:15;20.60;99.90
22742;DHT22;11538;48.884;8.696;2023-03-19T10:41:49;20.50;99.90
22742;DHT22;11538;48.884;8.696;2023-03-19T10:44:31;20.40;99.90
22742;DHT22;11538;48.884;8.696;2023-03-19T10:47:14;20.10;99.90
22742;DHT22;11538;48.884;8.696;2023-03-19T10:49:42;20.00;99.90
22742;DHT22;11538;48.884;8.696;2023-03-19T10:52:21;19.90;99.90
22742;DHT22;11538;48.884;8.696;2023-03-19T10:55:11;19.90;99.90
22742;DHT22;11538;48.884;8.696;2023-03-19T10:57:42;19.80;99.90
22742;DHT22;11538;48.884;8.696;2023-03-19T11:00:22;19.60;99.90
22742;DHT22;11538;48.884;8.696;2023-03-19T11:02:53;19.40;99.90
22742;DHT22;11538;48.884;8.696;2023-03-19T11:08:00;19.10;99.90
22742;DHT22;11538;48.884;8.696;2023-03-19T11:10:34;18.90;99.90
22742;DHT22;11538;48.884;8.696;2023-03-19T11:13:11;18.80;99.90
22742;DHT22;11538;48.884;8.696;2023-03-19T11:15:47;18.60;99.90
22742;DHT22;11538;48.884;8.696;2023-03-19T11:18:23;18.40;99.90
22742;DHT22;11538;48.884;8.696;2023-03-19T11:20:57;18.30;99.90
22742;DHT22;11538;48.884;8.696;2023-03-19T11:23:40;18.20;99.90
22742;DHT22;11538;48.884;8.696;2023-03-19T11:26:07;18.00;99.90
22742;DHT22;11538;48.884;8.696;2023-03-19T11:28:36;17.90;99.90
22742;DHT22;11538;48.884;8.696;2023-03-19T11:31:29;17.90;99.90
22742;DHT22;11538;48.884;8.696;2023-03-19T11:43:23;17.80;99.90
22742;DHT22;11538;48.884;8.696;2023-03-19T11:49:36;18.30;99.90
22742;DHT22;11538;48.884;8.696;2023-03-19T11:53:00;18.40;99.90
22742;DHT22;11538;48.884;8.696;2023-03-19T11:58:56;18.60;99.90
22742;DHT22;11538;48.884;8.696;2023-03-19T12:14:16;18.30;99.90
22742;DHT22;11538;48.884;8.696;2023-03-19T12:19:53;18.10;99.90
22742;DHT22;11538;48.884;8.696;2023-03-19T12:28:28;17.90;99.90
22742;DHT22;11538;48.884;8.696;2023-03-19T12:34:10;18.00;99.90
22742;DHT22;11538;48.884;8.696;2023-03-19T12:36:54;18.10;99.90
22742;DHT22;11538;48.884;8.696;2023-03-19T12:39:36;18.10;99.90
22742;DHT22;11538;48.884;8.696;2023-03-19T12:42:11;18.20;99.90
22742;DHT22;11538;48.884;8.696;2023-03-19T12:44:45;18.10;99.90
22742;DHT22;11538;48.884;8.696;2023-03-19T12:47:32;18.10;99.90
22742;DHT22;11538;48.884;8.696;2023-03-19T12:50:12;17.90;99.90
22742;DHT22;11538;48.884;8.696;2023-03-19T12:52:50;17.90;99.90
22742;DHT22;11538;48.884;8.696;2023-03-19T12:55:35;17.80;99.90
22742;DHT22;11538;48.884;8.696;2023-03-19T12:58:19;17.60;99.90
22742;DHT22;11538;48.884;8.696;2023-03-19T13:00:58;17.60;99.90
22742;DHT22;11538;48.884;8.696;2023-03-19T13:03:44;17.50;99.90
22742;DHT22;11538;48.884;8.696;2023-03-19T13:06:33;17.40;99.90
22742;DHT22;11538;48.884;8.696;2023-03-19T13:09:17;17.30;99.90
22742;DHT22;11538;48.884;8.696;2023-03-19T13:23:37;17.50;99.90
22742;DHT22;11538;48.884;8.696;2023-03-19T13:26:10;17.60;99.90
22742;DHT22;11538;48.884;8.696;2023-03-19T13:29:01;17.60;99.90
22742;DHT22;11538;48.884;8.696;2023-03-19T13:31:35;17.70;99.90
22742;DHT22;11538;48.884;8.696;2023-03-19T13:34:28;17.70;99.90
22742;DHT22;11538;48.884;8.696;2023-03-19T13:37:18;17.70;99.90
22742;DHT22;11538;48.884;8.696;2023-03-19T13:39:47;17.60;99.90
22742;DHT22;11538;48.884;8.696;2023-03-19T13:45:00;17.60;99.90
22742;DHT22;11538;48.884;8.696;2023-03-19T13:50:19;17.50;99.90
22742;DHT22;11538;48.884;8.696;2023-03-19T13:52:52;17.40;99.90
22742;DHT22;11538;48.884;8.696;2023-03-19T13:55:56;17.50;99.90
22742;DHT22;11538;48.884;8.696;2023-03-19T13:58:26;17.60;99.90
22742;DHT22;11538;48.884;8.696;2023-03-19T14:01:35;17.80;99.90
22742;DHT22;11538;48.884;8.696;2023-03-19T14:04:12;18.00;99.90
22742;DHT22;11538;48.884;8.696;2023-03-19T14:06:54;18.10;99.90
22742;DHT22;11538;48.884;8.696;2023-03-19T14:09:48;18.10;99.90
22742;DHT22;11538;48.884;8.696;2023-03-19T14:12:37;18.00;99.90
22742;DHT22;11538;48.884;8.696;2023-03-19T14:17:54;17.90;99.90
22742;DHT22;11538;48.884;8.696;2023-03-19T14:21:15;17.80;99.90
22742;DHT22;11538;48.884;8.696;2023-03-19T14:23:25;17.70;99.90
22742;DHT22;11538;48.884;8.696;2023-03-19T14:26:22;17.60;99.90
22742;DHT22;11538;48.884;8.696;2023-03-19T14:29:01;17.50;99.90
22742;DHT22;11538;48.884;8.696;2023-03-19T14:31:45;17.40;99.90
22742;DHT22;11538;48.884;8.696;2023-03-19T14:34:25;17.40;99.90
22742;DHT22;11538;48.884;8.696;2023-03-19T14:39:43;17.30;99.90
22742;DHT22;11538;48.884;8.696;2023-03-19T14:42:21;17.40;99.90
22742;DHT22;11538;48.884;8.696;2023-03-19T14:48:11;17.50;99.90
22742;DHT22;11538;48.884;8.696;2023-03-19T14:53:57;17.40;99.90
22742;DHT22;11538;48.884;8.696;2023-03-19T14:56:33;17.50;99.90
22742;DHT22;11538;48.884;8.696;2023-03-19T14:59:01;17.40;99.90
22742;DHT22;11538;48.884;8.696;2023-03-19T15:01:33;17.40;99.90
22742;DHT22;11538;48.884;8.696;2023-03-19T15:04:12;17.40;99.90
22742;DHT22;11538;48.884;8.696;2023-03-19T15:06:54;17.30;99.90
22742;DHT22;11538;48.884;8.696;2023-03-19T15:09:29;17.30;99.90
22742;DHT22;11538;48.884;8.696;2023-03-19T15:12:21;17.20;99.90
22742;DHT22;11538;48.884;8.696;2023-03-19T15:18:10;16.90;99.90
22742;DHT22;11538;48.884;8.696;2023-03-19T15:20:46;16.70;99.90
22742;DHT22;11538;48.884;8.696;2023-03-19T15:23:25;16.70;99.90
22742;DHT22;11538;48.884;8.696;2023-03-19T15:25:56;16.50;99.90
22742;DHT22;11538;48.884;8.696;2023-03-19T15:28:31;16.40;99.90
22742;DHT22;11538;48.884;8.696;2023-03-19T15:31:11;16.30;99.90
22742;DHT22;11538;48.884;8.696;2023-03-19T15:33:57;16.20;99.90
22742;DHT22;11538;48.884;8.696;2023-03-19T15:36:27;16.00;99.90
22742;DHT22;11538;48.884;8.696;2023-03-19T15:39:06;15.80;99.90
22742;DHT22;11538;48.884;8.696;2023-03-19T15:41:40;15.70;99.90
22742;DHT22;11538;48.884;8.696;2023-03-19T15:44:18;15.60;99.90
22742;DHT22;11538;48.884;8.696;2023-03-19T15:46:51;15.40;99.90
22742;DHT22;11538;48.884;8.696;2023-03-19T15:49:42;15.10;99.90
22742;DHT22;11538;48.884;8.696;2023-03-19T15:52:17;14.90;99.90
22742;DHT22;11538;48.884;8.696;2023-03-19T15:54:45;14.80;99.90
22742;DHT22;11538;48.884;8.696;2023-03-19T15:57:15;14.60;99.90
22742;DHT22;11538;48.884;8.696;2023-03-19T15:59:44;14.50;99.90
22742;DHT22;11538;48.884;8.696;2023-03-19T16:02:25;14.40;99.90
22742;DHT22;11538;48.884;8.696;2023-03-19T16:04:55;14.30;99.90
22742;DHT22;11538;48.884;8.696;2023-03-19T16:07:50;14.20;99.90
22742;DHT22;11538;48.884;8.696;2023-03-19T16:10:41;14.20;99.90
22742;DHT22;11538;48.884;8.696;2023-03-19T16:13:37;14.10;99.90
22742;DHT22;11538;48.884;8.696;2023-03-19T16:16:20;14.10;99.90
22742;DHT22;11538;48.884;8.696;2023-03-19T16:18:52;14.00;99.90
22742;DHT22;11538;48.884;8.696;2023-03-19T16:21:39;14.00;99.90
22742;DHT22;11538;48.884;8.696;2023-03-19T16:24:12;14.00;99.90
22742;DHT22;11538;48.884;8.696;2023-03-19T16:26:53;14.00;99.90
22742;DHT22;11538;48.884;8.696;2023-03-19T16:34:50;13.80;99.90
22742;DHT22;11538;48.884;8.696;2023-03-19T16:37:41;13.70;99.90
22742;DHT22;11538;48.884;8.696;2023-03-19T16:42:51;13.70;99.90
22742;DHT22;11538;48.884;8.696;2023-03-19T16:45:29;13.60;99.90
22742;DHT22;11538;48.884;8.696;2023-03-19T16:47:59;13.60;99.90
22742;DHT22;11538;48.884;8.696;2023-03-19T16:53:21;13.60;99.90
22742;DHT22;11538;48.884;8.696;2023-03-19T16:55:51;13.60;99.90
22742;DHT22;11538;48.884;8.696;2023-03-19T16:58:34;13.50;99.90
22742;DHT22;11538;48.884;8.696;2023-03-19T17:01:18;13.50;99.90
22742;DHT22;11538;48.884;8.696;2023-03-19T17:03:47;13.40;99.90
22742;DHT22;11538;48.884;8.696;2023-03-19T17:06:18;13.40;99.90
22742;DHT22;11538;48.884;8.696;2023-03-19T17:08:46;13.40;99.90
22742;DHT22;11538;48.884;8.696;2023-03-19T17:11:35;13.40;99.90
22742;DHT22;11538;48.884;8.696;2023-03-19T17:14:08;13.50;99.90
22742;DHT22;11538;48.884;8.696;2023-03-19T17:16:40;13.50;99.90
22742;DHT22;11538;48.884;8.696;2023-03-19T17:19:17;13.40;99.90
22742;DHT22;11538;48.884;8.696;2023-03-19T17:21:48;13.50;99.90
22742;DHT22;11538;48.884;8.696;2023-03-19T17:24:23;13.50;99.90
22742;DHT22;11538;48.884;8.696;2023-03-19T17:26:51;13.50;99.90
22742;DHT22;11538;48.884;8.696;2023-03-19T17:29:20;13.40;99.90
22742;DHT22;11538;48.884;8.696;2023-03-19T17:31:48;13.40;99.90
22742;DHT22;11538;48.884;8.696;2023-03-19T17:34:19;13.40;99.90
22742;DHT22;11538;48.884;8.696;2023-03-19T17:37:00;13.40;99.90
22742;DHT22;11538;48.884;8.696;2023-03-19T17:39:29;13.40;99.90